sensor_id;sensor_type;location;lat;lon;timestamp;P1;durP1;ratioP1;P2;durP2;ratioP2
76593;SDS011;65482;50.240;14.302;2023-08-21T00:00:45;11.88;;;9.27;;
76593;SDS011;65482;50.240;14.302;2023-08-21T00:03:32;15.80;;;9.52;;
76593;SDS011;65482;50.240;14.302;2023-08-21T00:05:57;10.98;;;9.52;;
76593;SDS011;65482;50.240;14.302;2023-08-21T00:08:23;13.02;;;9.93;;
76593;SDS011;65482;50.240;14.302;2023-08-21T00:10:49;11.52;;;9.70;;
76593;SDS011;65482;50.240;14.302;2023-08-21T00:13:14;13.90;;;10.02;;
76593;SDS011;65482;50.240;14.302;2023-08-21T00:15:40;13.18;;;9.70;;
76593;SDS011;65482;50.240;14.302;2023-08-21T00:18:05;14.32;;;10.40;;
76593;SDS011;65482;50.240;14.302;2023-08-21T00:20:31;12.07;;;9.77;;
76593;SDS011;65482;50.240;14.302;2023-08-21T00:22:57;14.43;;;10.15;;
76593;SDS011;65482;50.240;14.302;2023-08-21T00:25:22;12.20;;;9.80;;
76593;SDS011;65482;50.240;14.302;2023-08-21T00:27:48;14.05;;;10.20;;
76593;SDS011;65482;50.240;14.302;2023-08-21T00:30:14;12.57;;;10.65;;
76593;SDS011;65482;50.240;14.302;2023-08-21T00:32:40;15.38;;;9.80;;
76593;SDS011;65482;50.240;14.302;2023-08-21T00:35:07;18.40;;;10.57;;
76593;SDS011;65482;50.240;14.302;2023-08-21T00:37:32;12.20;;;10.23;;
76593;SDS011;65482;50.240;14.302;2023-08-21T00:39:58;17.15;;;10.70;;
76593;SDS011;65482;50.240;14.302;2023-08-21T00:42:23;12.18;;;10.02;;
76593;SDS011;65482;50.240;14.302;2023-08-21T00:44:49;14.05;;;9.90;;
76593;SDS011;65482;50.240;14.302;2023-08-21T00:47:14;12.32;;;10.60;;
76593;SDS011;65482;50.240;14.302;2023-08-21T00:49:40;12.40;;;10.35;;
76593;SDS011;65482;50.240;14.302;2023-08-21T00:52:08;12.07;;;9.60;;
76593;SDS011;65482;50.240;14.302;2023-08-21T00:54:36;12.43;;;9.95;;
76593;SDS011;65482;50.240;14.302;2023-08-21T00:57:02;14.75;;;10.32;;
76593;SDS011;65482;50.240;14.302;2023-08-21T00:59:28;12.65;;;9.70;;
76593;SDS011;65482;50.240;14.302;2023-08-21T01:01:54;11.77;;;10.02;;
76593;SDS011;65482;50.240;14.302;2023-08-21T01:04:20;11.82;;;9.70;;
76593;SDS011;65482;50.240;14.302;2023-08-21T01:06:47;12.35;;;10.55;;
76593;SDS011;65482;50.240;14.302;2023-08-21T01:12:40;14.65;;;10.40;;
76593;SDS011;65482;50.240;14.302;2023-08-21T01:15:07;11.30;;;9.73;;
76593;SDS011;65482;50.240;14.302;2023-08-21T01:17:36;15.48;;;10.68;;
76593;SDS011;65482;50.240;14.302;2023-08-21T01:20:02;13.10;;;10.77;;
76593;SDS011;65482;50.240;14.302;2023-08-21T01:22:37;13.85;;;10.25;;
76593;SDS011;65482;50.240;14.302;2023-08-21T01:25:04;16.00;;;9.27;;
76593;SDS011;65482;50.240;14.302;2023-08-21T01:27:31;13.43;;;11.13;;
76593;SDS011;65482;50.240;14.302;2023-08-21T01:29:57;11.55;;;10.35;;
76593;SDS011;65482;50.240;14.302;2023-08-21T01:32:25;13.50;;;10.23;;
76593;SDS011;65482;50.240;14.302;2023-08-21T01:34:55;13.15;;;10.50;;
76593;SDS011;65482;50.240;14.302;2023-08-21T01:37:21;13.27;;;10.50;;
76593;SDS011;65482;50.240;14.302;2023-08-21T01:39:48;15.02;;;10.02;;
76593;SDS011;65482;50.240;14.302;2023-08-21T01:42:14;14.30;;;10.38;;
76593;SDS011;65482;50.240;14.302;2023-08-21T01:44:40;13.90;;;10.05;;
76593;SDS011;65482;50.240;14.302;2023-08-21T01:47:05;11.13;;;9.40;;
76593;SDS011;65482;50.240;14.302;2023-08-21T01:49:31;12.68;;;10.25;;
76593;SDS011;65482;50.240;14.302;2023-08-21T01:51:57;13.80;;;10.00;;
76593;SDS011;65482;50.240;14.302;2023-08-21T01:54:22;13.85;;;9.90;;
76593;SDS011;65482;50.240;14.302;2023-08-21T01:56:48;11.60;;;10.40;;
76593;SDS011;65482;50.240;14.302;2023-08-21T01:59:15;11.95;;;9.88;;
76593;SDS011;65482;50.240;14.302;2023-08-21T02:01:42;13.18;;;10.15;;
76593;SDS011;65482;50.240;14.302;2023-08-21T02:04:07;13.82;;;10.32;;
76593;SDS011;65482;50.240;14.302;2023-08-21T02:06:33;12.50;;;10.85;;
76593;SDS011;65482;50.240;14.302;2023-08-21T02:08:59;14.02;;;10.95;;
76593;SDS011;65482;50.240;14.302;2023-08-21T02:11:24;12.75;;;11.18;;
76593;SDS011;65482;50.240;14.302;2023-08-21T02:13:50;11.95;;;9.63;;
76593;SDS011;65482;50.240;14.302;2023-08-21T02:16:15;12.27;;;10.40;;
76593;SDS011;65482;50.240;14.302;2023-08-21T02:18:41;16.52;;;10.55;;
76593;SDS011;65482;50.240;14.302;2023-08-21T02:21:06;14.75;;;10.65;;
76593;SDS011;65482;50.240;14.302;2023-08-21T02:23:32;15.18;;;10.75;;
76593;SDS011;65482;50.240;14.302;2023-08-21T02:25:58;12.43;;;10.88;;
76593;SDS011;65482;50.240;14.302;2023-08-21T02:28:23;14.75;;;11.20;;
76593;SDS011;65482;50.240;14.302;2023-08-21T02:30:49;15.30;;;11.30;;
76593;SDS011;65482;50.240;14.302;2023-08-21T02:33:14;13.85;;;11.35;;
76593;SDS011;65482;50.240;14.302;2023-08-21T02:35:40;18.05;;;10.90;;
76593;SDS011;65482;50.240;14.302;2023-08-21T02:38:06;12.32;;;10.63;;
76593;SDS011;65482;50.240;14.302;2023-08-21T02:40:31;13.82;;;11.05;;
76593;SDS011;65482;50.240;14.302;2023-08-21T02:42:57;16.77;;;10.98;;
76593;SDS011;65482;50.240;14.302;2023-08-21T02:45:23;17.83;;;11.55;;
76593;SDS011;65482;50.240;14.302;2023-08-21T02:47:49;14.73;;;10.68;;
76593;SDS011;65482;50.240;14.302;2023-08-21T02:50:14;13.30;;;10.90;;
76593;SDS011;65482;50.240;14.302;2023-08-21T02:52:40;15.27;;;11.27;;
76593;SDS011;65482;50.240;14.302;2023-08-21T02:55:05;16.75;;;11.70;;
76593;SDS011;65482;50.240;14.302;2023-08-21T02:57:31;19.95;;;11.82;;
76593;SDS011;65482;50.240;14.302;2023-08-21T02:59:57;15.48;;;11.82;;
76593;SDS011;65482;50.240;14.302;2023-08-21T03:02:23;16.88;;;11.23;;
76593;SDS011;65482;50.240;14.302;2023-08-21T03:04:48;17.75;;;12.13;;
76593;SDS011;65482;50.240;14.302;2023-08-21T03:07:14;13.95;;;11.95;;
76593;SDS011;65482;50.240;14.302;2023-08-21T03:09:40;14.02;;;11.93;;
76593;SDS011;65482;50.240;14.302;2023-08-21T03:12:07;15.95;;;12.80;;
76593;SDS011;65482;50.240;14.302;2023-08-21T03:14:33;15.82;;;11.82;;
76593;SDS011;65482;50.240;14.302;2023-08-21T03:16:59;15.82;;;13.52;;
76593;SDS011;65482;50.240;14.302;2023-08-21T03:19:24;14.57;;;12.15;;
76593;SDS011;65482;50.240;14.302;2023-08-21T03:21:50;16.27;;;12.52;;
76593;SDS011;65482;50.240;14.302;2023-08-21T03:24:16;17.58;;;13.10;;
76593;SDS011;65482;50.240;14.302;2023-08-21T03:26:42;20.38;;;13.10;;
76593;SDS011;65482;50.240;14.302;2023-08-21T03:29:07;15.05;;;12.20;;
76593;SDS011;65482;50.240;14.302;2023-08-21T03:31:33;19.52;;;12.20;;
76593;SDS011;65482;50.240;14.302;2023-08-21T03:33:58;15.52;;;12.32;;
76593;SDS011;65482;50.240;14.302;2023-08-21T03:36:24;17.50;;;12.73;;
76593;SDS011;65482;50.240;14.302;2023-08-21T03:38:59;13.90;;;12.40;;
76593;SDS011;65482;50.240;14.302;2023-08-21T03:41:25;15.77;;;12.50;;
76593;SDS011;65482;50.240;14.302;2023-08-21T03:43:51;13.73;;;12.15;;
76593;SDS011;65482;50.240;14.302;2023-08-21T03:46:16;17.60;;;13.13;;
76593;SDS011;65482;50.240;14.302;2023-08-21T03:48:42;18.15;;;13.40;;
76593;SDS011;65482;50.240;14.302;2023-08-21T03:51:07;16.48;;;13.75;;
76593;SDS011;65482;50.240;14.302;2023-08-21T03:53:33;16.00;;;12.68;;
76593;SDS011;65482;50.240;14.302;2023-08-21T03:55:59;18.48;;;13.20;;
76593;SDS011;65482;50.240;14.302;2023-08-21T03:58:24;19.95;;;12.30;;
76593;SDS011;65482;50.240;14.302;2023-08-21T04:00:53;14.13;;;11.45;;
76593;SDS011;65482;50.240;14.302;2023-08-21T04:03:18;18.58;;;13.35;;
76593;SDS011;65482;50.240;14.302;2023-08-21T04:05:44;19.15;;;12.95;;
76593;SDS011;65482;50.240;14.302;2023-08-21T04:08:10;19.42;;;12.57;;
76593;SDS011;65482;50.240;14.302;2023-08-21T04:10:36;17.48;;;12.13;;
76593;SDS011;65482;50.240;14.302;2023-08-21T04:13:01;16.42;;;12.15;;
76593;SDS011;65482;50.240;14.302;2023-08-21T04:15:27;13.52;;;11.73;;
76593;SDS011;65482;50.240;14.302;2023-08-21T04:17:53;16.50;;;12.07;;
76593;SDS011;65482;50.240;14.302;2023-08-21T04:20:22;13.85;;;12.27;;
76593;SDS011;65482;50.240;14.302;2023-08-21T04:22:48;18.65;;;12.45;;
76593;SDS011;65482;50.240;14.302;2023-08-21T04:25:14;16.10;;;13.27;;
76593;SDS011;65482;50.240;14.302;2023-08-21T04:27:39;17.10;;;12.90;;
76593;SDS011;65482;50.240;14.302;2023-08-21T04:30:06;21.10;;;12.98;;
76593;SDS011;65482;50.240;14.302;2023-08-21T04:32:33;21.55;;;12.80;;
76593;SDS011;65482;50.240;14.302;2023-08-21T04:34:58;18.25;;;12.52;;
76593;SDS011;65482;50.240;14.302;2023-08-21T04:37:24;15.85;;;12.15;;
76593;SDS011;65482;50.240;14.302;2023-08-21T04:39:50;14.85;;;11.80;;
76593;SDS011;65482;50.240;14.302;2023-08-21T04:42:16;17.13;;;11.70;;
76593;SDS011;65482;50.240;14.302;2023-08-21T04:44:42;14.65;;;11.98;;
76593;SDS011;65482;50.240;14.302;2023-08-21T04:49:48;15.27;;;11.60;;
76593;SDS011;65482;50.240;14.302;2023-08-21T04:52:14;18.67;;;12.27;;
76593;SDS011;65482;50.240;14.302;2023-08-21T04:54:39;14.82;;;11.80;;
76593;SDS011;65482;50.240;14.302;2023-08-21T04:57:06;14.60;;;12.27;;
76593;SDS011;65482;50.240;14.302;2023-08-21T04:59:31;21.73;;;12.18;;
76593;SDS011;65482;50.240;14.302;2023-08-21T05:01:57;18.00;;;12.20;;
76593;SDS011;65482;50.240;14.302;2023-08-21T05:04:23;17.38;;;12.48;;
76593;SDS011;65482;50.240;14.302;2023-08-21T05:06:48;16.98;;;12.32;;
76593;SDS011;65482;50.240;14.302;2023-08-21T05:09:14;16.30;;;12.60;;
76593;SDS011;65482;50.240;14.302;2023-08-21T05:11:40;15.52;;;12.25;;
76593;SDS011;65482;50.240;14.302;2023-08-21T05:14:06;15.40;;;12.48;;
76593;SDS011;65482;50.240;14.302;2023-08-21T05:16:31;14.20;;;12.60;;
76593;SDS011;65482;50.240;14.302;2023-08-21T05:18:57;15.48;;;12.63;;
76593;SDS011;65482;50.240;14.302;2023-08-21T05:21:23;13.45;;;11.80;;
76593;SDS011;65482;50.240;14.302;2023-08-21T05:23:48;15.85;;;12.13;;
76593;SDS011;65482;50.240;14.302;2023-08-21T05:26:14;16.35;;;11.70;;
76593;SDS011;65482;50.240;14.302;2023-08-21T05:28:42;19.20;;;12.05;;
76593;SDS011;65482;50.240;14.302;2023-08-21T05:31:07;16.55;;;11.63;;
76593;SDS011;65482;50.240;14.302;2023-08-21T05:33:33;14.35;;;12.23;;
76593;SDS011;65482;50.240;14.302;2023-08-21T05:35:59;17.85;;;11.40;;
76593;SDS011;65482;50.240;14.302;2023-08-21T05:38:25;16.05;;;11.52;;
76593;SDS011;65482;50.240;14.302;2023-08-21T05:40:55;14.55;;;11.05;;
76593;SDS011;65482;50.240;14.302;2023-08-21T05:43:21;13.95;;;11.20;;
76593;SDS011;65482;50.240;14.302;2023-08-21T05:45:46;14.52;;;11.73;;
76593;SDS011;65482;50.240;14.302;2023-08-21T05:48:13;17.27;;;12.02;;
76593;SDS011;65482;50.240;14.302;2023-08-21T05:50:38;16.25;;;11.43;;
76593;SDS011;65482;50.240;14.302;2023-08-21T05:53:04;16.10;;;11.68;;
76593;SDS011;65482;50.240;14.302;2023-08-21T05:55:30;16.73;;;11.32;;
76593;SDS011;65482;50.240;14.302;2023-08-21T05:57:56;20.90;;;11.25;;
76593;SDS011;65482;50.240;14.302;2023-08-21T06:00:22;15.70;;;11.93;;
76593;SDS011;65482;50.240;14.302;2023-08-21T06:02:47;16.75;;;11.45;;
76593;SDS011;65482;50.240;14.302;2023-08-21T06:05:13;13.27;;;10.90;;
76593;SDS011;65482;50.240;14.302;2023-08-21T06:07:39;18.02;;;11.70;;
76593;SDS011;65482;50.240;14.302;2023-08-21T06:10:08;13.57;;;10.88;;
76593;SDS011;65482;50.240;14.302;2023-08-21T06:12:38;15.40;;;11.07;;
76593;SDS011;65482;50.240;14.302;2023-08-21T06:15:05;14.60;;;11.35;;
76593;SDS011;65482;50.240;14.302;2023-08-21T06:17:35;14.90;;;11.18;;
76593;SDS011;65482;50.240;14.302;2023-08-21T06:20:00;17.35;;;11.88;;
76593;SDS011;65482;50.240;14.302;2023-08-21T06:22:26;16.40;;;10.93;;
76593;SDS011;65482;50.240;14.302;2023-08-21T06:24:52;16.27;;;11.15;;
76593;SDS011;65482;50.240;14.302;2023-08-21T06:27:17;15.63;;;11.00;;
76593;SDS011;65482;50.240;14.302;2023-08-21T06:29:43;18.27;;;11.18;;
76593;SDS011;65482;50.240;14.302;2023-08-21T06:32:09;12.30;;;9.52;;
76593;SDS011;65482;50.240;14.302;2023-08-21T06:34:34;17.15;;;9.43;;
76593;SDS011;65482;50.240;14.302;2023-08-21T06:37:00;12.18;;;9.43;;
76593;SDS011;65482;50.240;14.302;2023-08-21T06:39:26;11.50;;;9.65;;
76593;SDS011;65482;50.240;14.302;2023-08-21T06:41:52;11.95;;;9.77;;
76593;SDS011;65482;50.240;14.302;2023-08-21T06:44:17;12.32;;;10.20;;
76593;SDS011;65482;50.240;14.302;2023-08-21T06:46:43;11.30;;;8.88;;
76593;SDS011;65482;50.240;14.302;2023-08-21T06:49:08;13.38;;;10.05;;
76593;SDS011;65482;50.240;14.302;2023-08-21T06:51:34;11.35;;;9.68;;
76593;SDS011;65482;50.240;14.302;2023-08-21T06:54:00;14.23;;;9.57;;
76593;SDS011;65482;50.240;14.302;2023-08-21T06:56:26;11.95;;;8.82;;
76593;SDS011;65482;50.240;14.302;2023-08-21T06:58:52;12.20;;;8.85;;
76593;SDS011;65482;50.240;14.302;2023-08-21T07:01:20;11.18;;;8.45;;
76593;SDS011;65482;50.240;14.302;2023-08-21T07:03:46;10.80;;;7.70;;
76593;SDS011;65482;50.240;14.302;2023-08-21T07:06:12;10.90;;;7.93;;
76593;SDS011;65482;50.240;14.302;2023-08-21T07:08:38;7.82;;;6.78;;
76593;SDS011;65482;50.240;14.302;2023-08-21T07:11:06;10.90;;;7.43;;
76593;SDS011;65482;50.240;14.302;2023-08-21T07:13:33;10.15;;;7.15;;
76593;SDS011;65482;50.240;14.302;2023-08-21T07:15:59;9.02;;;7.07;;
76593;SDS011;65482;50.240;14.302;2023-08-21T07:18:28;8.20;;;7.35;;
76593;SDS011;65482;50.240;14.302;2023-08-21T07:20:55;7.40;;;6.70;;
76593;SDS011;65482;50.240;14.302;2023-08-21T07:23:20;9.30;;;7.00;;
76593;SDS011;65482;50.240;14.302;2023-08-21T07:25:46;8.85;;;6.95;;
76593;SDS011;65482;50.240;14.302;2023-08-21T07:28:12;7.20;;;6.47;;
76593;SDS011;65482;50.240;14.302;2023-08-21T07:30:38;6.93;;;6.22;;
76593;SDS011;65482;50.240;14.302;2023-08-21T07:33:04;13.30;;;7.25;;
76593;SDS011;65482;50.240;14.302;2023-08-21T07:35:31;8.52;;;6.70;;
76593;SDS011;65482;50.240;14.302;2023-08-21T07:37:58;8.40;;;6.75;;
76593;SDS011;65482;50.240;14.302;2023-08-21T07:40:24;10.23;;;6.13;;
76593;SDS011;65482;50.240;14.302;2023-08-21T07:42:50;8.20;;;6.75;;
76593;SDS011;65482;50.240;14.302;2023-08-21T07:45:16;13.45;;;7.03;;
76593;SDS011;65482;50.240;14.302;2023-08-21T07:47:42;7.85;;;6.38;;
76593;SDS011;65482;50.240;14.302;2023-08-21T07:50:08;12.95;;;6.10;;
76593;SDS011;65482;50.240;14.302;2023-08-21T07:52:34;10.50;;;6.22;;
76593;SDS011;65482;50.240;14.302;2023-08-21T07:55:02;9.15;;;5.80;;
76593;SDS011;65482;50.240;14.302;2023-08-21T07:57:28;8.45;;;6.32;;
76593;SDS011;65482;50.240;14.302;2023-08-21T08:00:03;6.93;;;5.65;;
76593;SDS011;65482;50.240;14.302;2023-08-21T08:02:35;7.03;;;5.72;;
76593;SDS011;65482;50.240;14.302;2023-08-21T08:05:03;7.10;;;5.70;;
76593;SDS011;65482;50.240;14.302;2023-08-21T08:07:30;12.50;;;5.95;;
76593;SDS011;65482;50.240;14.302;2023-08-21T08:09:57;7.68;;;6.60;;
76593;SDS011;65482;50.240;14.302;2023-08-21T08:12:23;10.55;;;6.25;;
76593;SDS011;65482;50.240;14.302;2023-08-21T08:14:52;11.63;;;6.55;;
76593;SDS011;65482;50.240;14.302;2023-08-21T08:17:18;12.75;;;7.00;;
76593;SDS011;65482;50.240;14.302;2023-08-21T08:19:47;8.45;;;7.38;;
76593;SDS011;65482;50.240;14.302;2023-08-21T08:22:14;9.45;;;7.20;;
76593;SDS011;65482;50.240;14.302;2023-08-21T08:24:41;9.93;;;7.25;;
76593;SDS011;65482;50.240;14.302;2023-08-21T08:27:07;9.18;;;7.35;;
76593;SDS011;65482;50.240;14.302;2023-08-21T08:29:33;10.02;;;6.82;;
76593;SDS011;65482;50.240;14.302;2023-08-21T08:31:58;7.45;;;6.70;;
76593;SDS011;65482;50.240;14.302;2023-08-21T08:34:26;9.93;;;7.07;;
76593;SDS011;65482;50.240;14.302;2023-08-21T08:36:54;9.13;;;7.00;;
76593;SDS011;65482;50.240;14.302;2023-08-21T08:39:21;8.88;;;6.25;;
76593;SDS011;65482;50.240;14.302;2023-08-21T08:41:51;10.93;;;6.45;;
76593;SDS011;65482;50.240;14.302;2023-08-21T08:44:24;9.30;;;6.68;;
76593;SDS011;65482;50.240;14.302;2023-08-21T08:46:53;8.43;;;6.22;;
76593;SDS011;65482;50.240;14.302;2023-08-21T08:49:21;9.25;;;6.45;;
76593;SDS011;65482;50.240;14.302;2023-08-21T08:51:51;11.20;;;6.63;;
76593;SDS011;65482;50.240;14.302;2023-08-21T08:54:22;8.48;;;6.10;;
76593;SDS011;65482;50.240;14.302;2023-08-21T08:56:50;10.07;;;6.88;;
76593;SDS011;65482;50.240;14.302;2023-08-21T08:59:17;9.52;;;6.70;;
76593;SDS011;65482;50.240;14.302;2023-08-21T09:01:43;6.93;;;6.32;;
76593;SDS011;65482;50.240;14.302;2023-08-21T09:04:11;9.80;;;6.72;;
76593;SDS011;65482;50.240;14.302;2023-08-21T09:06:37;9.95;;;6.85;;
76593;SDS011;65482;50.240;14.302;2023-08-21T09:09:03;8.73;;;6.47;;
76593;SDS011;65482;50.240;14.302;2023-08-21T09:11:29;7.32;;;6.10;;
76593;SDS011;65482;50.240;14.302;2023-08-21T09:13:58;9.63;;;5.80;;
76593;SDS011;65482;50.240;14.302;2023-08-21T09:16:24;9.07;;;5.82;;
76593;SDS011;65482;50.240;14.302;2023-08-21T09:18:52;6.43;;;5.68;;
76593;SDS011;65482;50.240;14.302;2023-08-21T09:21:20;7.40;;;6.15;;
76593;SDS011;65482;50.240;14.302;2023-08-21T09:23:47;7.43;;;6.43;;
76593;SDS011;65482;50.240;14.302;2023-08-21T09:26:18;8.13;;;6.35;;
76593;SDS011;65482;50.240;14.302;2023-08-21T09:28:47;8.25;;;7.03;;
76593;SDS011;65482;50.240;14.302;2023-08-21T09:31:14;8.85;;;6.60;;
76593;SDS011;65482;50.240;14.302;2023-08-21T09:33:41;9.52;;;7.30;;
76593;SDS011;65482;50.240;14.302;2023-08-21T09:36:06;12.30;;;7.45;;
76593;SDS011;65482;50.240;14.302;2023-08-21T09:38:35;10.48;;;7.10;;
76593;SDS011;65482;50.240;14.302;2023-08-21T09:41:05;10.77;;;7.50;;
76593;SDS011;65482;50.240;14.302;2023-08-21T09:43:31;8.60;;;7.20;;
76593;SDS011;65482;50.240;14.302;2023-08-21T09:45:58;8.20;;;6.80;;
76593;SDS011;65482;50.240;14.302;2023-08-21T09:48:25;8.80;;;7.70;;
76593;SDS011;65482;50.240;14.302;2023-08-21T09:50:55;10.63;;;7.45;;
76593;SDS011;65482;50.240;14.302;2023-08-21T09:53:22;8.50;;;7.20;;
76593;SDS011;65482;50.240;14.302;2023-08-21T09:55:52;8.63;;;7.20;;
76593;SDS011;65482;50.240;14.302;2023-08-21T09:58:20;11.13;;;6.95;;
76593;SDS011;65482;50.240;14.302;2023-08-21T10:00:47;11.48;;;6.63;;
76593;SDS011;65482;50.240;14.302;2023-08-21T10:03:15;10.65;;;7.05;;
76593;SDS011;65482;50.240;14.302;2023-08-21T10:05:43;10.60;;;6.60;;
76593;SDS011;65482;50.240;14.302;2023-08-21T10:08:12;8.38;;;6.78;;
76593;SDS011;65482;50.240;14.302;2023-08-21T10:10:41;9.07;;;7.15;;
76593;SDS011;65482;50.240;14.302;2023-08-21T10:13:07;18.25;;;7.00;;
76593;SDS011;65482;50.240;14.302;2023-08-21T10:15:34;9.48;;;6.43;;
76593;SDS011;65482;50.240;14.302;2023-08-21T10:18:24;8.82;;;6.53;;
76593;SDS011;65482;50.240;14.302;2023-08-21T10:21:12;8.63;;;6.93;;
76593;SDS011;65482;50.240;14.302;2023-08-21T10:23:39;7.28;;;6.45;;
76593;SDS011;65482;50.240;14.302;2023-08-21T10:26:06;9.93;;;6.60;;
76593;SDS011;65482;50.240;14.302;2023-08-21T10:34:09;10.38;;;6.57;;
76593;SDS011;65482;50.240;14.302;2023-08-21T10:39:24;11.70;;;6.93;;
76593;SDS011;65482;50.240;14.302;2023-08-21T10:41:53;10.20;;;6.80;;
76593;SDS011;65482;50.240;14.302;2023-08-21T10:45:05;12.68;;;7.30;;
76593;SDS011;65482;50.240;14.302;2023-08-21T10:50:00;12.20;;;7.55;;
76593;SDS011;65482;50.240;14.302;2023-08-21T10:52:39;7.35;;;6.30;;
76593;SDS011;65482;50.240;14.302;2023-08-21T10:55:11;9.40;;;7.07;;
76593;SDS011;65482;50.240;14.302;2023-08-21T10:57:38;10.50;;;6.43;;
76593;SDS011;65482;50.240;14.302;2023-08-21T11:00:07;9.73;;;6.38;;
76593;SDS011;65482;50.240;14.302;2023-08-21T11:02:37;10.48;;;6.57;;
76593;SDS011;65482;50.240;14.302;2023-08-21T11:05:04;8.95;;;6.68;;
76593;SDS011;65482;50.240;14.302;2023-08-21T11:07:42;9.00;;;7.07;;
76593;SDS011;65482;50.240;14.302;2023-08-21T11:10:10;10.15;;;7.43;;
76593;SDS011;65482;50.240;14.302;2023-08-21T11:12:38;11.00;;;6.50;;
76593;SDS011;65482;50.240;14.302;2023-08-21T11:15:15;12.63;;;6.50;;
76593;SDS011;65482;50.240;14.302;2023-08-21T11:20:32;9.52;;;6.82;;
76593;SDS011;65482;50.240;14.302;2023-08-21T11:23:00;8.52;;;6.38;;
76593;SDS011;65482;50.240;14.302;2023-08-21T11:25:29;12.27;;;6.80;;
76593;SDS011;65482;50.240;14.302;2023-08-21T11:27:55;7.30;;;5.93;;
76593;SDS011;65482;50.240;14.302;2023-08-21T11:30:22;8.43;;;5.97;;
76593;SDS011;65482;50.240;14.302;2023-08-21T11:35:40;9.35;;;5.90;;
76593;SDS011;65482;50.240;14.302;2023-08-21T11:38:06;8.95;;;6.13;;
76593;SDS011;65482;50.240;14.302;2023-08-21T11:40:38;9.23;;;6.43;;
76593;SDS011;65482;50.240;14.302;2023-08-21T11:43:04;8.40;;;6.88;;
76593;SDS011;65482;50.240;14.302;2023-08-21T11:45:34;9.43;;;5.93;;
76593;SDS011;65482;50.240;14.302;2023-08-21T11:48:01;13.88;;;5.78;;
76593;SDS011;65482;50.240;14.302;2023-08-21T11:50:27;7.70;;;5.80;;
76593;SDS011;65482;50.240;14.302;2023-08-21T11:52:54;9.95;;;5.85;;
76593;SDS011;65482;50.240;14.302;2023-08-21T11:55:21;8.40;;;5.95;;
76593;SDS011;65482;50.240;14.302;2023-08-21T11:57:50;7.22;;;6.00;;
76593;SDS011;65482;50.240;14.302;2023-08-21T12:00:19;10.02;;;5.82;;
76593;SDS011;65482;50.240;14.302;2023-08-21T12:02:58;6.10;;;5.38;;
76593;SDS011;65482;50.240;14.302;2023-08-21T12:05:27;9.02;;;6.10;;
76593;SDS011;65482;50.240;14.302;2023-08-21T12:07:53;8.23;;;6.25;;
76593;SDS011;65482;50.240;14.302;2023-08-21T12:10:25;9.07;;;6.18;;
76593;SDS011;65482;50.240;14.302;2023-08-21T12:12:52;6.60;;;5.88;;
76593;SDS011;65482;50.240;14.302;2023-08-21T12:15:19;10.20;;;5.80;;
76593;SDS011;65482;50.240;14.302;2023-08-21T12:17:45;10.15;;;5.40;;
76593;SDS011;65482;50.240;14.302;2023-08-21T12:20:11;8.48;;;5.80;;
76593;SDS011;65482;50.240;14.302;2023-08-21T12:22:37;10.57;;;5.68;;
76593;SDS011;65482;50.240;14.302;2023-08-21T12:25:04;7.82;;;5.72;;
76593;SDS011;65482;50.240;14.302;2023-08-21T12:27:30;8.40;;;5.53;;
76593;SDS011;65482;50.240;14.302;2023-08-21T12:29:56;6.47;;;5.75;;
76593;SDS011;65482;50.240;14.302;2023-08-21T12:32:22;8.93;;;5.88;;
76593;SDS011;65482;50.240;14.302;2023-08-21T12:34:48;11.00;;;6.28;;
76593;SDS011;65482;50.240;14.302;2023-08-21T12:37:14;9.38;;;6.07;;
76593;SDS011;65482;50.240;14.302;2023-08-21T12:39:40;10.07;;;6.13;;
76593;SDS011;65482;50.240;14.302;2023-08-21T12:42:06;7.60;;;6.18;;
76593;SDS011;65482;50.240;14.302;2023-08-21T12:44:33;12.15;;;8.00;;
76593;SDS011;65482;50.240;14.302;2023-08-21T12:46:59;6.57;;;5.55;;
76593;SDS011;65482;50.240;14.302;2023-08-21T12:49:25;8.45;;;5.43;;
76593;SDS011;65482;50.240;14.302;2023-08-21T12:51:51;8.70;;;5.88;;
76593;SDS011;65482;50.240;14.302;2023-08-21T12:54:17;6.57;;;5.80;;
76593;SDS011;65482;50.240;14.302;2023-08-21T12:56:43;8.80;;;5.75;;
76593;SDS011;65482;50.240;14.302;2023-08-21T12:59:12;7.85;;;6.00;;
76593;SDS011;65482;50.240;14.302;2023-08-21T13:01:38;7.63;;;5.82;;
76593;SDS011;65482;50.240;14.302;2023-08-21T13:04:05;7.25;;;5.47;;
76593;SDS011;65482;50.240;14.302;2023-08-21T13:06:31;12.45;;;6.47;;
76593;SDS011;65482;50.240;14.302;2023-08-21T13:08:57;7.70;;;5.85;;
76593;SDS011;65482;50.240;14.302;2023-08-21T13:11:22;8.85;;;5.55;;
76593;SDS011;65482;50.240;14.302;2023-08-21T13:13:48;8.40;;;5.60;;
76593;SDS011;65482;50.240;14.302;2023-08-21T13:16:13;10.88;;;5.50;;
76593;SDS011;65482;50.240;14.302;2023-08-21T13:18:40;7.82;;;4.75;;
76593;SDS011;65482;50.240;14.302;2023-08-21T13:21:06;7.70;;;4.60;;
76593;SDS011;65482;50.240;14.302;2023-08-21T13:23:32;5.93;;;4.80;;
76593;SDS011;65482;50.240;14.302;2023-08-21T13:25:59;5.72;;;5.10;;
76593;SDS011;65482;50.240;14.302;2023-08-21T13:28:29;5.60;;;5.03;;
76593;SDS011;65482;50.240;14.302;2023-08-21T13:30:56;8.30;;;5.28;;
76593;SDS011;65482;50.240;14.302;2023-08-21T13:33:23;8.38;;;5.63;;
76593;SDS011;65482;50.240;14.302;2023-08-21T13:35:48;5.90;;;5.28;;
76593;SDS011;65482;50.240;14.302;2023-08-21T13:38:14;9.32;;;5.68;;
76593;SDS011;65482;50.240;14.302;2023-08-21T13:40:40;7.82;;;6.00;;
76593;SDS011;65482;50.240;14.302;2023-08-21T13:43:06;9.63;;;5.63;;
76593;SDS011;65482;50.240;14.302;2023-08-21T13:45:35;7.72;;;5.72;;
76593;SDS011;65482;50.240;14.302;2023-08-21T13:48:03;9.00;;;6.10;;
76593;SDS011;65482;50.240;14.302;2023-08-21T13:50:29;7.60;;;5.50;;
76593;SDS011;65482;50.240;14.302;2023-08-21T13:52:57;6.40;;;5.72;;
76593;SDS011;65482;50.240;14.302;2023-08-21T13:55:23;10.55;;;6.15;;
76593;SDS011;65482;50.240;14.302;2023-08-21T13:57:49;7.35;;;5.82;;
76593;SDS011;65482;50.240;14.302;2023-08-21T14:00:15;7.10;;;6.22;;
76593;SDS011;65482;50.240;14.302;2023-08-21T14:02:50;9.43;;;6.03;;
76593;SDS011;65482;50.240;14.302;2023-08-21T14:05:16;9.43;;;5.95;;
76593;SDS011;65482;50.240;14.302;2023-08-21T14:07:42;7.00;;;5.85;;
76593;SDS011;65482;50.240;14.302;2023-08-21T14:10:07;8.15;;;5.95;;
76593;SDS011;65482;50.240;14.302;2023-08-21T14:12:34;7.63;;;5.95;;
76593;SDS011;65482;50.240;14.302;2023-08-21T14:15:00;7.20;;;5.50;;
76593;SDS011;65482;50.240;14.302;2023-08-21T14:17:27;7.75;;;5.65;;
76593;SDS011;65482;50.240;14.302;2023-08-21T14:19:53;7.18;;;5.80;;
76593;SDS011;65482;50.240;14.302;2023-08-21T14:22:20;9.68;;;6.10;;
76593;SDS011;65482;50.240;14.302;2023-08-21T14:24:45;7.80;;;6.10;;
76593;SDS011;65482;50.240;14.302;2023-08-21T14:27:11;8.05;;;5.72;;
76593;SDS011;65482;50.240;14.302;2023-08-21T14:29:37;7.55;;;5.95;;
76593;SDS011;65482;50.240;14.302;2023-08-21T14:32:03;6.03;;;5.43;;
76593;SDS011;65482;50.240;14.302;2023-08-21T14:37:13;7.32;;;5.35;;
76593;SDS011;65482;50.240;14.302;2023-08-21T14:39:41;8.38;;;5.57;;
76593;SDS011;65482;50.240;14.302;2023-08-21T14:42:08;6.78;;;5.53;;
76593;SDS011;65482;50.240;14.302;2023-08-21T14:44:34;7.28;;;5.40;;